Database: COMPET-N - COOP - 3PL - 4PL - CNDOOM

WAD: Doom | Doom 2 | TNT | Plutonia | AV | HR | Scythe | MM | MM2 | Requiem | CE
Category: speed | nmare | max | nm100s | tyson | pacifist | fast | respawn | nomo | misc | built | all
Highscore: ALL | IWAD | PWAD | Country | Continent

< Previous map       Next map >
Remove: wad | map | category | player | allMAP07
MapPlayerTimeDateFilenameCommentsDL
MAP07: PrisonChris Felix45.002004-04-24ev07-045.zip - 184
MAP07: PrisonJim Leonard48.002002-10-04ev07-048.zip - 115
MAP07: PrisonDrew DeVore49.002002-10-03ev07-049.zip - 69
MAP07: PrisonVincent Catalaa50.002000-03-01ev07-050.zip - 48
MAP07: PrisonSelim Benabdelkhalek53.002000-03-01ev07-053.zip - 55
MAP07: PrisonAdam Hegyi54.001998-09-02ev07-054.zip - 71
MAP07: PrisonVincent Catalaa57.001998-09-01ev07-057.zip - 71
MAP07: PrisonIlya Britvich59.001997-10-23ev07-059.zip - 63
MAP07: PrisonVincent Catalaa1:04.001998-08-03ev07-104.zip - 112
MAP07: PrisonPeo Sjoblom1:27.001997-04-22ev07-127.zip - 46
MAP07: PrisonJim Leonard56.002002-09-08tn07-056.zip - 148
MAP07: PrisonVincent Catalaa58.002001-09-05tn07-058.zip - 53
MAP07: PrisonSelim Benabdelkhalek59.002001-10-24tn07-059.zip - 46
MAP07: PrisonSelim Benabdelkhalek1:00.002000-04-09tn07-100.zip - 45
MAP07: PrisonSelim Benabdelkhalek1:01.002000-03-01tn07-101.zip - 50
MAP07: PrisonVincent Catalaa1:02.002000-02-27tn07-102.zip - 56
MAP07: PrisonSelim Benabdelkhalek1:03.002000-02-27tn07-103.zip - 56
MAP07: PrisonVincent Catalaa1:06.002000-02-25tn07-106.zip - 43
MAP07: PrisonIstvan Pataki2:17.001997-04-22ev07-nm.zip - 47
MAP07: PrisonJakub Razak6:58.002005-08-07ev07-658.zip - 138
MAP07: PrisonChris Ratcliff7:22.002001-09-01ev07-722.zip - 73
MAP07: PrisonRadek Pecka7:50.002001-05-17ev07-750.zip - 63
MAP07: PrisonYashar Garibzadeh8:08.002001-02-04ev07-808.zip - 66
MAP07: PrisonChris Ratcliff8:30.002000-12-02ev07-830.zip - 93
MAP07: PrisonKai-Uwe Humpert9:59.001996-11-04ev07-959.zip - 43
MAP07: PrisonDrew DeVore3:05.002002-07-21es07-305.zip - 144
MAP07: PrisonJ4rio 17:02.002012-07-15et071702.zip - 168
MAP07: PrisonJim Leonard36:05.002001-07-26et073605.zip - 129
MAP07: PrisonJim Leonard1:34.002002-10-05ep07-134.zip - 185
MAP07: PrisonSelim Benabdelkhalek1:43.002001-10-22ep07-143.zip - 52
MAP07: PrisonSelim Benabdelkhalek2:04.002001-06-15ep07-204.zip - 45
MAP07: PrisonJim Leonard5:14.002001-06-11ep07-514.zip - 126
MAP07: PrisonJim Leonard12:44.002002-10-12ef071244.zip - 170
MAP07: PrisonChris Ratcliff13:50.002001-02-09ef071350.zip - 71
MAP07: PrisonKai-Uwe Humpert19:33.001997-11-11tnt07-gm.zip - 59
MAP07: PrisonJim Leonard4:50.002002-08-02er07-450.zip - 187
MAP07: PrisonChris Ratcliff4:58.002001-10-29er07-458.zip - 71
Remove: wad | map | category | player | all